createdAt,value
2016-09-14T03:00:53.556Z,42.82
2016-09-14T03:01:19.078Z,42.44
2016-09-14T03:02:32.486Z,42.44
2016-09-14T03:02:58.035Z,42.72
2016-09-14T03:03:23.616Z,42.63
2016-09-14T03:03:49.191Z,42.82
2016-09-14T03:04:14.762Z,42.72
2016-09-14T03:04:40.331Z,42.54
2016-09-14T03:05:05.929Z,42.82
2016-09-14T03:05:31.508Z,42.54
2016-09-14T03:06:29.594Z,42.63
2016-09-14T03:06:55.154Z,42.54
2016-09-14T03:07:20.723Z,42.34
2016-09-14T03:07:46.281Z,42.54
2016-09-14T03:08:11.870Z,42.34
2016-09-14T03:08:37.454Z,42.72
2016-09-14T03:09:03.109Z,42.82
2016-09-14T03:09:28.680Z,42.82
2016-09-14T03:09:54.246Z,42.54
2016-09-14T03:10:19.837Z,42.54
2016-09-14T03:10:45.398Z,42.72
2016-09-14T03:11:10.998Z,42.54
2016-09-14T03:11:36.569Z,42.82
2016-09-14T03:12:02.137Z,42.63
2016-09-14T03:12:27.698Z,42.72
2016-09-14T03:12:53.267Z,42.54
2016-09-14T03:13:18.836Z,42.63
2016-09-14T03:13:44.405Z,42.82
2016-09-14T03:14:10.128Z,42.72
2016-09-14T03:14:35.670Z,42.63
2016-09-14T03:15:01.242Z,42.72
2016-09-14T03:15:26.892Z,42.63
2016-09-14T03:15:52.469Z,42.63
2016-09-14T03:16:18.098Z,43.21
2016-09-14T03:16:43.657Z,43.19
2016-09-14T03:17:09.224Z,43.21
2016-09-14T03:17:34.796Z,43.12
2016-09-14T03:18:00.366Z,43.21
2016-09-14T03:18:25.931Z,43.21
2016-09-14T03:18:51.497Z,43.02
2016-09-14T03:19:17.066Z,43.41
2016-09-14T03:19:42.629Z,43.21
2016-09-14T03:20:08.204Z,43.02
2016-09-14T03:20:33.777Z,43.31
2016-09-14T03:20:59.428Z,43.02
2016-09-14T03:21:24.984Z,43.02
2016-09-14T03:21:50.651Z,43.02
2016-09-14T03:22:16.335Z,43.12
2016-09-14T03:22:42.716Z,43.21
2016-09-14T03:23:07.510Z,43.21
2016-09-14T03:23:33.911Z,43.21
2016-09-14T03:23:59.451Z,43.02
2016-09-14T03:24:25.008Z,43.5
2016-09-14T03:24:50.579Z,43.12
2016-09-14T03:25:16.245Z,43.68
2016-09-14T03:25:41.800Z,43.48
2016-09-14T03:26:07.464Z,43.5
2016-09-14T03:26:33.043Z,43.7
2016-09-14T03:26:58.600Z,43.79
2016-09-14T03:27:24.131Z,43.21
2016-09-14T03:27:49.748Z,43.12
2016-09-14T03:28:15.317Z,43.12
2016-09-14T03:28:40.904Z,43.02
2016-09-14T03:29:06.503Z,43.31
2016-09-14T03:29:32.175Z,43.02
2016-09-14T03:29:57.737Z,43.12
2016-09-14T03:30:23.303Z,43.02
2016-09-14T03:30:48.858Z,42.82
2016-09-14T03:31:14.412Z,43.02
2016-09-14T03:31:39.963Z,42.72
2016-09-14T03:32:05.608Z,42.92
2016-09-14T03:32:31.170Z,42.54
2016-09-14T03:32:56.735Z,42.72
2016-09-14T03:33:22.298Z,42.63
2016-09-14T03:34:35.703Z,42.82
2016-09-14T03:35:01.386Z,42.82
2016-09-14T03:35:27.005Z,42.55
2016-09-14T03:35:52.615Z,42.55
2016-09-14T03:36:18.193Z,42.63
2016-09-14T03:36:43.838Z,42.82
2016-09-14T03:37:09.444Z,42.82
2016-09-14T03:37:35.003Z,42.63
2016-09-14T03:38:00.562Z,42.65
2016-09-14T03:38:26.178Z,42.55
2016-09-14T03:38:51.740Z,42.36
2016-09-14T03:39:17.313Z,42.75
2016-09-14T03:39:42.888Z,42.54
2016-09-14T03:40:08.433Z,42.85
2016-09-14T03:40:34.009Z,42.65
2016-09-14T03:40:59.551Z,42.92
2016-09-14T03:41:25.119Z,42.55
2016-09-14T03:41:50.697Z,42.65
2016-09-14T03:42:16.264Z,42.65
2016-09-14T03:42:41.821Z,42.36
2016-09-14T03:43:07.363Z,42.24
2016-09-14T03:43:32.898Z,42.55
2016-09-14T03:43:58.526Z,42.44
2016-09-14T03:44:24.060Z,42.36
2016-09-14T03:44:49.613Z,42.26
2016-09-14T03:45:15.153Z,42.54
2016-09-14T03:45:40.888Z,42.55
2016-09-14T03:46:06.483Z,42.26
2016-09-14T03:46:32.050Z,42.55
2016-09-14T03:46:57.641Z,42.55
2016-09-14T03:47:23.205Z,42.26
2016-09-14T03:47:48.762Z,42.46
2016-09-14T03:48:14.357Z,42.65
2016-09-14T03:48:39.907Z,42.94
2016-09-14T03:49:05.492Z,42.17
2016-09-14T03:49:31.031Z,42.07
2016-09-14T03:49:56.590Z,42.26
2016-09-14T03:50:22.153Z,42.26
2016-09-14T03:50:47.729Z,42.17
2016-09-14T03:51:13.300Z,42.55
2016-09-14T03:51:38.853Z,42.07
2016-09-14T03:52:04.431Z,42.26
2016-09-14T03:52:29.990Z,42.17
2016-09-14T03:52:55.683Z,42.26
2016-09-14T03:53:21.233Z,42.26
2016-09-14T03:53:46.804Z,42.17
2016-09-14T03:54:12.416Z,42.36
2016-09-14T03:54:38.066Z,42.94
2016-09-14T03:55:03.614Z,42.85
2016-09-14T03:55:29.165Z,42.26
2016-09-14T03:55:54.912Z,42.55
2016-09-14T03:56:20.497Z,42.07
2016-09-14T03:56:46.052Z,42.46
2016-09-14T03:57:54.330Z,42.17
2016-09-14T03:58:19.904Z,42.94
2016-09-14T03:58:45.520Z,42.65
2016-09-14T03:59:11.103Z,43.04
2016-09-14T03:59:36.652Z,42.94
2016-09-14T04:00:02.235Z,42.46
2016-09-14T04:00:27.794Z,42.26
2016-09-14T04:00:53.348Z,41.99
2016-09-14T04:01:18.986Z,41.89
2016-09-14T04:01:44.572Z,41.89
2016-09-14T04:02:10.132Z,41.99
2016-09-14T04:02:35.696Z,41.99
2016-09-14T04:03:01.255Z,41.89
2016-09-14T04:03:26.829Z,41.99
2016-09-14T04:03:52.405Z,42.09
2016-09-14T04:04:17.948Z,41.8
2016-09-14T04:04:43.524Z,41.61
2016-09-14T04:05:09.080Z,41.8
2016-09-14T04:05:34.656Z,41.7
2016-09-14T04:06:00.258Z,41.8
2016-09-14T04:06:25.836Z,41.7
2016-09-14T04:06:51.388Z,41.7
2016-09-14T04:07:17.002Z,41.61
2016-09-14T04:07:42.556Z,41.61
2016-09-14T04:08:45.752Z,41.61
2016-09-14T04:10:56.173Z,41.51
2016-09-14T04:11:21.733Z,41.61
2016-09-14T04:11:47.303Z,41.8
2016-09-14T04:12:12.933Z,41.89
2016-09-14T04:13:04.124Z,41.8
2016-09-14T04:13:29.696Z,41.8
2016-09-14T04:13:55.259Z,41.7
2016-09-14T04:14:20.862Z,41.8
2016-09-14T04:14:46.435Z,41.99
2016-09-14T04:15:12.001Z,42.09
2016-09-14T04:15:37.581Z,41.8
2016-09-14T04:16:03.201Z,41.8
2016-09-14T04:16:28.771Z,42.19
2016-09-14T04:16:54.323Z,41.99
2016-09-14T04:17:19.916Z,41.89
2016-09-14T04:17:45.499Z,41.99
2016-09-14T04:18:11.055Z,41.8
2016-09-14T04:18:36.622Z,42.09
2016-09-14T04:19:02.189Z,42.19
2016-09-14T04:20:00.320Z,42.19
2016-09-14T04:20:25.937Z,41.99
2016-09-14T04:20:51.487Z,41.99
2016-09-14T04:21:17.052Z,41.99
2016-09-14T04:21:42.724Z,41.99
2016-09-14T04:22:08.315Z,41.89
2016-09-14T04:22:33.879Z,41.89
2016-09-14T04:22:59.431Z,41.99
2016-09-14T04:23:25.135Z,41.99
2016-09-14T04:23:50.711Z,41.89
2016-09-14T04:24:16.269Z,41.89
2016-09-14T04:24:41.941Z,41.89
2016-09-14T04:25:07.505Z,41.99
2016-09-14T04:25:33.075Z,42.09
2016-09-14T04:25:58.627Z,42.09
2016-09-14T04:26:24.431Z,42.86
2016-09-14T04:26:50.113Z,42.67
2016-09-14T04:27:15.689Z,42.67
2016-09-14T04:27:41.248Z,42.96
2016-09-14T04:28:06.977Z,42.86
2016-09-14T04:28:32.535Z,42.67
2016-09-14T04:28:58.125Z,42.38
2016-09-14T04:29:23.689Z,42.57
2016-09-14T04:29:49.236Z,42.38
2016-09-14T04:30:14.784Z,42.38
2016-09-14T04:30:40.355Z,42.48
2016-09-14T04:31:05.931Z,42.38
2016-09-14T04:31:31.567Z,42.57
2016-09-14T04:31:57.157Z,42.67
2016-09-14T04:32:22.732Z,42.57
2016-09-14T04:32:48.317Z,42.57
2016-09-14T04:33:13.887Z,42.38
2016-09-14T04:33:39.487Z,42.67
2016-09-14T04:34:05.061Z,42.48
2016-09-14T04:34:30.677Z,42.29
2016-09-14T04:34:56.319Z,42.19
2016-09-14T04:35:21.877Z,42.19
2016-09-14T04:35:47.438Z,42.38
2016-09-14T04:36:13.002Z,42.86
2016-09-14T04:36:38.579Z,42.67
2016-09-14T04:37:04.240Z,42.86
2016-09-14T04:37:30.367Z,42.57
2016-09-14T04:37:55.935Z,42.86
2016-09-14T04:38:21.504Z,42.67
2016-09-14T04:38:47.176Z,42.48
2016-09-14T04:39:12.730Z,42.67
2016-09-14T04:39:38.358Z,42.86
2016-09-14T04:40:03.931Z,42.96
2016-09-14T04:40:29.488Z,42.57
2016-09-14T04:40:55.078Z,42.19
2016-09-14T04:41:20.651Z,42.29
2016-09-14T04:41:46.240Z,42.19
2016-09-14T04:42:11.843Z,41.99
2016-09-14T04:42:37.419Z,41.8
2016-09-14T04:43:02.998Z,41.99
2016-09-14T04:43:28.636Z,41.89
2016-09-14T04:44:36.961Z,41.89
2016-09-14T04:45:02.544Z,41.89
2016-09-14T04:45:28.110Z,42.29
2016-09-14T04:45:53.665Z,42.48
2016-09-14T04:46:19.265Z,42.67
2016-09-14T04:46:44.812Z,42.57
2016-09-14T04:47:10.403Z,42.38
2016-09-14T04:47:35.974Z,42.57
2016-09-14T04:48:01.544Z,42.38
2016-09-14T04:48:27.123Z,42.86
2016-09-14T04:48:52.717Z,42.57
2016-09-14T04:49:18.278Z,42.57
2016-09-14T04:49:43.834Z,42.57
2016-09-14T04:50:09.544Z,42.48
2016-09-14T04:50:35.119Z,42.67
2016-09-14T04:51:00.688Z,42.67
2016-09-14T04:51:26.258Z,42.67
2016-09-14T04:51:51.822Z,42.38
2016-09-14T04:52:17.464Z,42.67
2016-09-14T04:52:43.025Z,42.38
2016-09-14T04:53:08.665Z,42.57
2016-09-14T04:53:34.236Z,42.96
2016-09-14T04:53:59.840Z,42.67
2016-09-14T04:54:25.387Z,42.36
2016-09-14T04:54:50.954Z,42.26
2016-09-14T04:55:16.515Z,42.65
2016-09-14T04:55:42.102Z,42.65
2016-09-14T04:56:07.744Z,42.36
2016-09-14T04:56:33.321Z,42.57
2016-09-14T04:56:58.862Z,42.38
2016-09-14T04:57:24.445Z,42.57
2016-09-14T04:57:50.021Z,42.48
2016-09-14T04:58:15.626Z,42.57
2016-09-14T04:58:41.181Z,42.77
2016-09-14T04:59:06.765Z,42.86
2016-09-14T04:59:32.356Z,42.75
2016-09-14T04:59:57.894Z,42.77
2016-09-14T05:00:23.469Z,42.57
2016-09-14T05:00:49.035Z,42.38
2016-09-14T05:01:14.640Z,41.99
2016-09-14T05:01:40.214Z,42.29
2016-09-14T05:02:05.842Z,42.19
2016-09-14T05:02:31.506Z,42.09
2016-09-14T05:02:57.094Z,42.19
2016-09-14T05:03:22.739Z,42.29
2016-09-14T05:03:48.467Z,42.29
2016-09-14T05:04:14.041Z,42.19
2016-09-14T05:04:39.667Z,42.19
2016-09-14T05:05:05.222Z,42.29
2016-09-14T05:05:30.804Z,42.19
2016-09-14T05:05:56.349Z,42.09
2016-09-14T05:06:21.941Z,42.09
2016-09-14T05:06:47.584Z,41.89
2016-09-14T05:07:13.147Z,41.8
2016-09-14T05:07:38.716Z,41.8
2016-09-14T05:08:04.281Z,41.99
2016-09-14T05:08:29.881Z,41.97
2016-09-14T05:08:55.441Z,42.29
2016-09-14T05:09:21.018Z,41.99
2016-09-14T05:09:46.583Z,42.19
2016-09-14T05:10:12.147Z,41.89
2016-09-14T05:10:37.710Z,41.99
2016-09-14T05:11:03.274Z,41.99
2016-09-14T05:11:28.863Z,41.99
2016-09-14T05:11:54.434Z,41.89
2016-09-14T05:12:20.013Z,41.89
2016-09-14T05:12:45.680Z,41.89
2016-09-14T05:13:11.248Z,42.09
2016-09-14T05:13:36.812Z,42.09
2016-09-14T05:14:02.457Z,41.99
2016-09-14T05:14:28.118Z,42.09
2016-09-14T05:14:53.682Z,41.89
2016-09-14T05:15:19.283Z,42.09
2016-09-14T05:15:44.946Z,41.89
2016-09-14T05:16:10.644Z,41.99
2016-09-14T05:16:36.184Z,41.89
2016-09-14T05:17:01.854Z,41.99
2016-09-14T05:17:27.434Z,41.8
2016-09-14T05:17:52.991Z,41.7
2016-09-14T05:18:18.662Z,42.09
2016-09-14T05:18:44.176Z,42.09
2016-09-14T05:19:09.775Z,41.89
2016-09-14T05:19:35.332Z,41.89
2016-09-14T05:20:00.876Z,41.7
2016-09-14T05:20:26.431Z,41.99
2016-09-14T05:20:52.011Z,42.09
2016-09-14T05:21:17.587Z,41.99
2016-09-14T05:21:43.141Z,42.09
2016-09-14T05:22:08.733Z,41.99
2016-09-14T05:22:34.301Z,41.89
2016-09-14T05:22:59.874Z,42.09
2016-09-14T05:23:25.443Z,41.99
2016-09-14T05:23:51.067Z,41.89
2016-09-14T05:24:16.671Z,41.89
2016-09-14T05:24:42.259Z,41.8
2016-09-14T05:25:07.824Z,41.89
2016-09-14T05:25:33.403Z,42.09
2016-09-14T05:25:58.972Z,41.99
2016-09-14T05:26:24.539Z,42.29
2016-09-14T05:26:50.096Z,42.09
2016-09-14T05:27:15.673Z,42.19
2016-09-14T05:27:41.302Z,42.29
2016-09-14T05:28:06.893Z,41.89
2016-09-14T05:28:32.443Z,41.89
2016-09-14T05:28:57.999Z,41.99
2016-09-14T05:29:23.559Z,42.29
2016-09-14T05:29:49.183Z,42.29
2016-09-14T05:30:14.733Z,42.77
2016-09-14T05:30:40.403Z,42.19
2016-09-14T05:31:05.966Z,42.29
2016-09-14T05:31:31.531Z,42.29
2016-09-14T05:31:57.103Z,42.19
2016-09-14T05:32:22.673Z,42.29
2016-09-14T05:32:48.368Z,41.99
2016-09-14T05:33:13.973Z,41.99
2016-09-14T05:33:39.543Z,41.89
2016-09-14T05:34:37.693Z,42.19
2016-09-14T05:35:36.109Z,41.82
2016-09-14T05:36:01.694Z,41.82
2016-09-14T05:36:27.269Z,41.82
2016-09-14T05:36:52.947Z,41.89
2016-09-14T05:37:18.502Z,42.09
2016-09-14T05:37:44.074Z,42.19
2016-09-14T05:38:09.631Z,41.99
2016-09-14T05:38:35.281Z,42.29
2016-09-14T05:39:43.598Z,42.19
2016-09-14T05:40:09.155Z,42.09
2016-09-14T05:40:34.730Z,42.29
2016-09-14T05:41:00.343Z,42.3
2016-09-14T05:41:25.905Z,42.21
2016-09-14T05:41:51.459Z,42.19
2016-09-14T05:42:17.034Z,42.21
2016-09-14T05:43:30.482Z,42.5
2016-09-14T05:43:56.058Z,42.57
2016-09-14T05:44:21.723Z,42.38
2016-09-14T05:44:47.385Z,42.21
2016-09-14T05:45:12.954Z,42.11
2016-09-14T05:45:38.586Z,42.3
2016-09-14T05:46:04.148Z,42.29
2016-09-14T05:46:29.701Z,42.86
2016-09-14T05:46:55.327Z,42.86
2016-09-14T05:47:20.906Z,42.6
2016-09-14T05:47:46.483Z,42.67
2016-09-14T05:48:12.045Z,42.77
2016-09-14T05:48:37.614Z,42.89
2016-09-14T05:49:03.188Z,42.96
2016-09-14T05:49:28.738Z,42.67
2016-09-14T05:49:54.334Z,42.48
2016-09-14T05:50:19.874Z,42.48
2016-09-14T05:50:45.424Z,42.67
2016-09-14T05:51:10.987Z,42.77
2016-09-14T05:51:36.553Z,42.69
2016-09-14T05:52:02.101Z,42.69
2016-09-14T05:52:27.656Z,43.08
2016-09-14T05:52:53.207Z,42.89
2016-09-14T05:53:18.769Z,42.79
2016-09-14T05:53:44.345Z,42.89
2016-09-14T05:54:09.945Z,42.69
2016-09-14T05:54:35.523Z,42.67
2016-09-14T05:55:01.093Z,42.38
2016-09-14T05:55:26.734Z,42.3
2016-09-14T05:55:52.312Z,42.3
2016-09-14T05:56:17.866Z,42.6
2016-09-14T05:56:43.434Z,42.38
2016-09-14T05:57:09.022Z,42.6
2016-09-14T05:57:34.572Z,42.5
2016-09-14T05:58:00.125Z,42.48
2016-09-14T05:58:25.681Z,42.69
2016-09-14T05:58:51.245Z,42.57
2016-09-14T05:59:16.836Z,42.6
2016-09-14T05:59:42.515Z,42.69
2016-09-14T06:00:08.093Z,42.69
2016-09-14T06:00:33.695Z,42.6
2016-09-14T06:01:26.734Z,42.69
2016-09-14T06:01:52.293Z,42.69
2016-09-14T06:02:17.893Z,42.6
2016-09-14T06:02:43.461Z,42.5
2016-09-14T06:03:09.070Z,42.79
2016-09-14T06:03:34.656Z,42.89
2016-09-14T06:04:00.219Z,42.79
2016-09-14T06:04:25.787Z,42.79
2016-09-14T06:04:51.377Z,42.79
2016-09-14T06:05:17.000Z,42.6
2016-09-14T06:05:42.672Z,42.69
2016-09-14T06:06:08.202Z,42.5
2016-09-14T06:06:33.749Z,42.5
2016-09-14T06:06:59.299Z,42.3
2016-09-14T06:07:24.840Z,42.5
2016-09-14T06:08:17.823Z,42.6
2016-09-14T06:08:43.456Z,42.69
2016-09-14T06:09:09.025Z,42.79
2016-09-14T06:09:34.572Z,42.89
2016-09-14T06:10:00.110Z,42.3
2016-09-14T06:10:25.675Z,42.69
2016-09-14T06:10:51.225Z,42.5
2016-09-14T06:11:16.773Z,42.5
2016-09-14T06:11:42.344Z,42.69
2016-09-14T06:12:07.923Z,42.4
2016-09-14T06:12:33.503Z,42.4
2016-09-14T06:12:59.073Z,42.6
2016-09-14T06:13:24.678Z,42.4
2016-09-14T06:13:50.257Z,42.6
2016-09-14T06:14:15.820Z,42.6
2016-09-14T06:14:41.548Z,42.4
2016-09-14T06:15:07.121Z,42.69
2016-09-14T06:15:32.667Z,42.69
2016-09-14T06:15:58.250Z,42.5
2016-09-14T06:16:23.817Z,42.3
2016-09-14T06:16:49.387Z,42.69
2016-09-14T06:17:14.970Z,42.69
2016-09-14T06:17:40.535Z,42.4
2016-09-14T06:18:06.105Z,42.5
2016-09-14T06:18:31.686Z,42.69
2016-09-14T06:18:57.283Z,42.4
2016-09-14T06:19:22.832Z,42.5
2016-09-14T06:19:48.384Z,42.5
2016-09-14T06:20:13.933Z,42.5
2016-09-14T06:20:39.503Z,42.6
2016-09-14T06:21:05.060Z,42.6
2016-09-14T06:21:30.662Z,42.69
2016-09-14T06:21:56.209Z,42.6
2016-09-14T06:22:21.823Z,42.5
2016-09-14T06:22:47.410Z,42.3
2016-09-14T06:23:13.078Z,42.5
2016-09-14T06:23:38.657Z,42.5
2016-09-14T06:24:04.211Z,42.3
2016-09-14T06:24:29.852Z,42.5
2016-09-14T06:24:55.472Z,42.4
2016-09-14T06:25:21.059Z,42.6
2016-09-14T06:25:46.638Z,42.6
2016-09-14T06:26:12.271Z,42.5
2016-09-14T06:26:37.800Z,42.6
2016-09-14T06:27:03.385Z,42.5
2016-09-14T06:27:28.954Z,42.3
2016-09-14T06:27:54.539Z,42.4
2016-09-14T06:28:20.101Z,42.4
2016-09-14T06:28:45.659Z,42.6
2016-09-14T06:29:11.239Z,42.69
2016-09-14T06:29:36.825Z,42.4
2016-09-14T06:30:02.396Z,42.4
2016-09-14T06:30:27.954Z,42.89
2016-09-14T06:30:53.525Z,42.79
2016-09-14T06:31:19.102Z,43.08
2016-09-14T06:31:44.664Z,43.06
2016-09-14T06:32:10.336Z,43.54
2016-09-14T06:32:35.913Z,43.35
2016-09-14T06:33:01.487Z,43.74
2016-09-14T06:33:27.059Z,43.74
2016-09-14T06:33:52.632Z,43.45
2016-09-14T06:34:18.195Z,43.35
2016-09-14T06:34:43.746Z,43.35
2016-09-14T06:35:09.308Z,43.84
2016-09-14T06:35:34.875Z,43.18
2016-09-14T06:36:00.474Z,43.47
2016-09-14T06:36:26.181Z,43.18
2016-09-14T06:36:51.729Z,42.99
2016-09-14T06:37:17.332Z,42.6
2016-09-14T06:37:42.907Z,42.6
2016-09-14T06:38:08.464Z,42.99
2016-09-14T06:38:34.074Z,42.99
2016-09-14T06:38:59.656Z,42.69
2016-09-14T06:39:25.228Z,42.79
2016-09-14T06:39:50.795Z,42.89
2016-09-14T06:40:16.421Z,42.89
2016-09-14T06:40:41.980Z,42.99
2016-09-14T06:41:07.561Z,42.69
2016-09-14T06:41:33.131Z,42.79
2016-09-14T06:41:58.692Z,42.79
2016-09-14T06:42:24.266Z,42.6
2016-09-14T06:42:49.819Z,43.08
2016-09-14T06:43:15.396Z,42.79
2016-09-14T06:43:40.987Z,42.79
2016-09-14T06:44:06.568Z,42.99
2016-09-14T06:44:32.170Z,43.08
2016-09-14T06:44:57.734Z,43.08
2016-09-14T06:45:23.295Z,43.08
2016-09-14T06:45:48.859Z,43.18
2016-09-14T06:46:14.445Z,43.18
2016-09-14T06:46:40.222Z,43.47
2016-09-14T06:47:05.797Z,43.74
2016-09-14T06:47:31.433Z,43.76
2016-09-14T06:47:57.003Z,43.64
2016-09-14T06:48:22.572Z,43.45
2016-09-14T06:48:48.149Z,43.45
2016-09-14T06:49:13.760Z,43.54
2016-09-14T06:49:39.356Z,43.74
2016-09-14T06:50:04.913Z,43.84
2016-09-14T06:50:30.486Z,43.93
2016-09-14T06:50:56.242Z,43.64
2016-09-14T06:51:21.832Z,43.84
2016-09-14T06:51:47.404Z,43.74
2016-09-14T06:52:13.010Z,44.03
2016-09-14T06:52:38.578Z,43.54
2016-09-14T06:53:04.132Z,43.84
2016-09-14T06:53:29.701Z,43.84
2016-09-14T06:54:38.034Z,43.74
2016-09-14T06:55:03.597Z,44.13
2016-09-14T06:55:29.157Z,44.23
2016-09-14T06:55:54.741Z,44.13
2016-09-14T06:56:20.307Z,44.13
2016-09-14T06:56:45.866Z,44.61
2016-09-14T06:57:11.455Z,44.51
2016-09-14T06:57:37.030Z,44.71
2016-09-14T06:58:02.588Z,45.1
2016-09-14T06:58:28.240Z,45.1
2016-09-14T06:58:53.817Z,45.1
2016-09-14T06:59:19.426Z,45.2
2016-09-14T06:59:45.028Z,45
2016-09-14T07:00:10.590Z,45.2
2016-09-14T07:00:36.149Z,45.1
2016-09-14T07:01:01.756Z,45.1
2016-09-14T07:01:27.322Z,45.2
2016-09-14T07:01:52.892Z,45.1
2016-09-14T07:02:18.504Z,45.1
2016-09-14T07:02:44.076Z,45.1
2016-09-14T07:03:09.629Z,45.1
2016-09-14T07:03:35.205Z,45.1
2016-09-14T07:04:00.767Z,45.17
2016-09-14T07:04:26.325Z,44.88
2016-09-14T07:04:51.876Z,45.37
2016-09-14T07:05:17.470Z,45.27
2016-09-14T07:05:43.033Z,45.37
2016-09-14T07:06:08.596Z,45.27
2016-09-14T07:06:34.164Z,45.56
2016-09-14T07:06:59.763Z,45.39
2016-09-14T07:07:25.354Z,45.47
2016-09-14T07:07:50.920Z,45.47
2016-09-14T07:08:16.470Z,45.65
2016-09-14T07:08:42.047Z,45.47
2016-09-14T07:09:07.589Z,45.47
2016-09-14T07:09:33.165Z,46.33
2016-09-14T07:09:58.758Z,46.24
2016-09-14T07:10:24.315Z,45.85
2016-09-14T07:10:49.897Z,45.85
2016-09-14T07:11:15.477Z,46.33
2016-09-14T07:11:41.033Z,46.24
2016-09-14T07:12:06.611Z,46.24
2016-09-14T07:12:32.202Z,46.24
2016-09-14T07:12:57.767Z,46.33
2016-09-14T07:13:23.392Z,46.53
2016-09-14T07:13:48.968Z,46.24
2016-09-14T07:14:14.638Z,46.33
2016-09-14T07:14:40.201Z,46.24
2016-09-14T07:15:05.770Z,46.04
2016-09-14T07:15:31.337Z,45.95
2016-09-14T07:15:56.918Z,46.33
2016-09-14T07:16:22.534Z,46.33
2016-09-14T07:16:48.092Z,46.14
2016-09-14T07:17:13.652Z,46.14
2016-09-14T07:17:39.219Z,46.04
2016-09-14T07:18:04.791Z,46.14
2016-09-14T07:18:30.353Z,46.24
2016-09-14T07:18:56.098Z,45.95
2016-09-14T07:19:21.647Z,45.75
2016-09-14T07:19:47.191Z,45.75
2016-09-14T07:20:12.771Z,45.75
2016-09-14T07:20:38.342Z,45.65
2016-09-14T07:21:04.048Z,46.33
2016-09-14T07:21:29.774Z,46.33
2016-09-14T07:21:55.350Z,46.33
2016-09-14T07:22:20.965Z,46.24
2016-09-14T07:22:46.548Z,46.62
2016-09-14T07:23:12.203Z,46.43
2016-09-14T07:23:37.939Z,46.24
2016-09-14T07:24:03.508Z,46.33
2016-09-14T07:24:29.123Z,46.43
2016-09-14T07:24:54.670Z,46.62
2016-09-14T07:25:20.357Z,46.99
2016-09-14T07:25:45.916Z,46.6
2016-09-14T07:26:38.894Z,46.92
2016-09-14T07:27:04.475Z,46.72
2016-09-14T07:27:30.154Z,46.92
2016-09-14T07:27:55.706Z,46.92
2016-09-14T07:28:21.249Z,46.72
2016-09-14T07:28:46.915Z,46.92
2016-09-14T07:29:12.494Z,46.72
2016-09-14T07:29:38.089Z,46.99
2016-09-14T07:30:03.658Z,46.99
2016-09-14T07:30:29.337Z,47.09
2016-09-14T07:30:54.916Z,47.02
2016-09-14T07:31:20.503Z,47.3
2016-09-14T07:31:46.110Z,47.28
2016-09-14T07:32:39.094Z,47.47
2016-09-14T07:33:04.667Z,47.38
2016-09-14T07:33:30.219Z,46.99
2016-09-14T07:34:43.781Z,47.28
2016-09-14T07:35:41.856Z,47.47
2016-09-14T07:36:07.415Z,47.5
2016-09-14T07:36:32.995Z,47.57
2016-09-14T07:36:58.562Z,47.38
2016-09-14T07:37:24.212Z,47.4
2016-09-14T07:37:49.780Z,47.77
2016-09-14T07:38:15.323Z,47.6
2016-09-14T07:38:40.879Z,47.47
2016-09-14T07:39:06.452Z,47.38
2016-09-14T07:39:32.052Z,47.47
2016-09-14T07:39:57.623Z,47.38
2016-09-14T07:40:23.262Z,47.57
2016-09-14T07:40:48.829Z,48.06
2016-09-14T07:41:14.392Z,48.06
2016-09-14T07:41:39.948Z,48.06
2016-09-14T07:42:05.512Z,48.06
2016-09-14T07:42:31.069Z,48.35
2016-09-14T07:42:56.654Z,48.06
2016-09-14T07:43:22.314Z,48.06
2016-09-14T07:43:47.862Z,48.06
2016-09-14T07:44:13.433Z,48.06
2016-09-14T07:44:39.011Z,48.06
2016-09-14T07:45:04.576Z,48.25
2016-09-14T07:45:30.178Z,48.25
2016-09-14T07:45:55.754Z,48.06
2016-09-14T07:46:21.336Z,48.06
2016-09-14T07:46:46.909Z,48.06
2016-09-14T07:47:12.578Z,47.96
2016-09-14T07:47:38.153Z,47.96
2016-09-14T07:48:03.769Z,47.86
2016-09-14T07:48:29.400Z,47.86
2016-09-14T07:48:54.973Z,48.15
2016-09-14T07:49:20.588Z,47.86
2016-09-14T07:49:46.150Z,47.96
2016-09-14T07:50:11.723Z,48.25
2016-09-14T07:50:37.289Z,48.15
2016-09-14T07:51:02.877Z,48.25
2016-09-14T07:51:28.495Z,47.96
2016-09-14T07:51:54.091Z,47.96
2016-09-14T07:52:19.637Z,48.15
2016-09-14T07:52:45.247Z,48.15
2016-09-14T07:53:10.819Z,48.25
2016-09-14T07:53:36.377Z,48.06
2016-09-14T07:54:01.969Z,48.25
2016-09-14T07:54:27.521Z,48.25
2016-09-14T07:54:53.111Z,48.35
2016-09-14T07:55:18.788Z,48.15
2016-09-14T07:55:44.359Z,47.96
2016-09-14T07:56:09.932Z,48.15
2016-09-14T07:56:35.507Z,48.25
2016-09-14T07:57:01.085Z,48.06
2016-09-14T07:57:26.605Z,47.6
2016-09-14T07:57:52.173Z,47.6
2016-09-14T07:58:17.729Z,47.5
2016-09-14T07:58:43.398Z,47.09
2016-09-14T07:59:08.983Z,47.69
2016-09-14T07:59:34.548Z,47.96
2016-09-14T08:00:00.129Z,48.25
2016-09-14T08:00:25.753Z,48.35
2016-09-14T08:00:51.338Z,48.06
2016-09-14T08:01:17.014Z,48.15
2016-09-14T08:01:42.587Z,48.25
2016-09-14T08:02:08.159Z,48.18
2016-09-14T08:02:33.803Z,48.15
2016-09-14T08:02:59.431Z,47.96
2016-09-14T08:03:24.989Z,48.15
2016-09-14T08:03:50.556Z,47.96
2016-09-14T08:04:16.127Z,47.5
2016-09-14T08:04:41.729Z,47.69
2016-09-14T08:05:07.317Z,47.98
2016-09-14T08:05:32.995Z,47.96
2016-09-14T08:05:58.617Z,48.08
2016-09-14T08:06:24.199Z,48.15
2016-09-14T08:06:49.778Z,48.06
2016-09-14T08:07:15.380Z,47.86
2016-09-14T08:07:40.938Z,48.15
2016-09-14T08:08:06.635Z,48.15
2016-09-14T08:08:32.201Z,48.06
2016-09-14T08:08:57.870Z,48.27
2016-09-14T08:09:23.525Z,47.69
2016-09-14T08:09:49.128Z,47.6
2016-09-14T08:10:14.692Z,48.08
2016-09-14T08:10:40.257Z,48.08
2016-09-14T08:11:05.838Z,48.37
2016-09-14T08:11:31.513Z,48.37
2016-09-14T08:11:57.091Z,48.08
2016-09-14T08:12:22.670Z,48.08
2016-09-14T08:12:48.241Z,47.98
2016-09-14T08:13:13.985Z,48.18
2016-09-14T08:13:39.538Z,48.08
2016-09-14T08:14:05.121Z,48.08
2016-09-14T08:14:30.656Z,48.08
2016-09-14T08:14:56.218Z,47.6
2016-09-14T08:15:21.786Z,47.6
2016-09-14T08:15:47.481Z,47.5
2016-09-14T08:16:13.046Z,47.6
2016-09-14T08:16:38.607Z,47.98
2016-09-14T08:17:04.292Z,48.08
2016-09-14T08:17:29.873Z,48.37
2016-09-14T08:17:55.439Z,48.25
2016-09-14T08:18:20.983Z,48.18
2016-09-14T08:18:46.543Z,47.98
2016-09-14T08:19:12.086Z,48.25
2016-09-14T08:19:37.710Z,48.15
2016-09-14T08:20:03.233Z,48.08
2016-09-14T08:20:28.798Z,47.89
2016-09-14T08:20:54.353Z,47.89
2016-09-14T08:21:20.005Z,47.98
2016-09-14T08:21:45.567Z,47.98
2016-09-14T08:22:11.828Z,48.18
2016-09-14T08:22:37.387Z,48.18
2016-09-14T08:23:03.609Z,48.27
2016-09-14T08:23:29.181Z,48.27
2016-09-14T08:23:54.756Z,48.27
2016-09-14T08:24:20.939Z,48.27
2016-09-14T08:24:46.503Z,47.98
2016-09-14T08:25:12.810Z,48.18
2016-09-14T08:25:38.396Z,47.98
2016-09-14T08:26:03.972Z,47.98
2016-09-14T08:26:30.076Z,48.08
2016-09-14T08:26:55.657Z,48.27
2016-09-14T08:27:21.908Z,48.18
2016-09-14T08:27:47.471Z,48.27
2016-09-14T08:28:13.681Z,48.27
2016-09-14T08:28:39.276Z,48.08
2016-09-14T08:29:04.827Z,48.18
2016-09-14T08:29:31.011Z,48.18
2016-09-14T08:29:56.571Z,48.18
2016-09-14T08:30:22.827Z,48.08
2016-09-14T08:30:48.362Z,48.18
2016-09-14T08:31:13.925Z,48.18
2016-09-14T08:31:40.161Z,48.08
2016-09-14T08:32:05.742Z,48.27
2016-09-14T08:32:31.964Z,48.27
2016-09-14T08:33:45.427Z,48.08
2016-09-14T08:34:11.113Z,48.08
2016-09-14T08:34:36.690Z,47.79
2016-09-14T08:35:02.253Z,47.79
2016-09-14T08:35:27.866Z,47.89
2016-09-14T08:35:53.418Z,47.89
2016-09-14T08:36:19.013Z,47.89
2016-09-14T08:36:44.584Z,47.98
2016-09-14T08:37:10.158Z,48.18
2016-09-14T08:37:35.886Z,47.98
2016-09-14T08:38:01.460Z,47.98
2016-09-14T08:38:33.207Z,47.98
2016-09-14T08:38:58.782Z,47.98
2016-09-14T08:39:24.950Z,48.18
2016-09-14T08:39:50.508Z,48.08
2016-09-14T08:40:16.144Z,48.08
2016-09-14T08:40:42.306Z,47.89
2016-09-14T08:41:07.946Z,48.08
2016-09-14T08:41:34.152Z,47.98
2016-09-14T08:41:59.680Z,48.08
2016-09-14T08:42:25.903Z,48.66
2016-09-14T08:42:51.471Z,48.27
2016-09-14T08:43:17.117Z,47.98
2016-09-14T08:43:43.250Z,48.2
2016-09-14T08:44:08.882Z,48.08
2016-09-14T08:44:35.090Z,48.27
2016-09-14T08:45:00.675Z,47.89
2016-09-14T08:45:26.271Z,47.79
2016-09-14T08:45:52.386Z,48.66
2016-09-14T08:46:18.030Z,48.57